Terminal Aerodrome Forecast
Issued by NWS Charleston, WV

Current Version | Previous Version | Graphics & Text | Print | Product List | Glossary On
Versions: 1 2 3 4 5 6 7 8 9 10 11 12 13 14 15 16 17 18 19 20 21 22 23 24 25 26
840
FTUS41 KRLX 200855 AAA
TAFPKB
TAF AMD
KPKB 200855Z 2009/2106 21007KT P6SM SCT025
     FM201200 21008KT P6SM SCT035
     FM201900 23008G17KT P6SM BKN025
     FM210000 23005KT P6SM OVC015=

USA.gov is the U.S. government's official web portal to all federal, state and local government web resources and services.